MOL Celebration — C6WW7 — position and weather

sailwx.info

Track history (hours):
 
Tides and Currents Weather Stations Pressure Air Temp Water Temp Dewpoint Dewpoint Depression Visibility Wind Speed Wind Dir Waves Ship Positions

MOL Celebration

Last reported at 2014-Oct-13 06:07 UTC. Time now 2014-Oct-21 13:44 UTC.
Position N 36°45' E 013°16'.
Warning: this ship's position is 8 days out of date.

Length 316 m; draft 14.1 m.

Type: Ship (hazmat cat D). MMSI: 309901000.

Date/timePositionNaut miles runAvg speedWind from/ knotsBaromVisibWave heightAir tempDewpointWater temp
2014-Oct-13 06:07N 36°45' E 013°16'1017.4
2014-Oct-13 05:34N 36°49' E 013°05'1717.4
2014-Oct-13 04:34N 36°53' E 012°44'1717.4
2014-Oct-13 03:33N 36°58' E 012°23'1817.6
2014-Oct-13 02:33N 37°05' E 012°02'1917.9
2014-Oct-13 01:31N 37°11' E 011°40'1717.7
2014-Oct-13 00:34N 37°19' E 011°21'1817.5
2014-Oct-12 23:33N 37°26' E 011°01'1817.6
2014-Oct-12 22:33N 37°31' E 010°40'1818.1
2014-Oct-12 21:33N 37°35' E 010°17'1818.5
2014-Oct-12 20:33N 37°35' E 009°54'1918.8
2014-Oct-12 19:34N 37°36' E 009°31'1918.7
2014-Oct-12 18:33N 37°36' E 009°07'1818.2
2014-Oct-12 17:33N 37°35' E 008°44'1818.0
2014-Oct-12 16:34N 37°33' E 008°21'13118.0
2014-Oct-12 09:17N 37°18' E 005°37'1518.3
2014-Oct-12 08:29N 37°16' E 005°19'9618.8
2014-Oct-12 03:21N 37°03' E 003°19'2219.3
2014-Oct-12 02:12N 36°59' E 002°52'1219.1
2014-Oct-12 01:33N 36°58' E 002°37'1918.8
2014-Oct-12 00:33N 36°55' E 002°13'1818.2
2014-Oct-11 23:33N 36°52' E 001°51'2218.5
2014-Oct-11 22:23N 36°48' E 001°24'1619.1
2014-Oct-11 21:32N 36°46' E 001°04'1818.5
2014-Oct-11 20:33N 36°44' E 000°42'1817.8
2014-Oct-11 19:33N 36°41' E 000°20'1818.2
2014-Oct-11 18:33N 36°37' W 000°02'1818.0
2014-Oct-11 17:33N 36°34' W 000°24'1817.7
2014-Oct-11 16:33N 36°31' W 000°46'1817.7
2014-Oct-11 15:33N 36°28' W 001°08'1918.0
2014-Oct-11 14:31N 36°25' W 001°31'18418.5
2014-Oct-11 04:33N 35°59' W 005°17'12818.2
2014-Oct-10 21:32N 36°16' W 007°53'1818.5
2014-Oct-10 20:34N 36°22' W 008°15'1918.6
2014-Oct-10 19:34N 36°27' W 008°37'1919.1
2014-Oct-10 18:34N 36°31' W 009°00'2018.3
2014-Oct-10 17:29N 36°38' W 009°23'1718.3
2014-Oct-10 16:33N 36°52' W 009°35'1818.5
2014-Oct-10 15:33N 37°10' W 009°39'2018.6
2014-Oct-10 14:27N 37°30' W 009°45'1617.9
2014-Oct-10 13:33N 37°46' W 009°49'1918.4
2014-Oct-10 12:31N 38°04' W 009°55'1918.5
2014-Oct-10 11:28N 38°23' W 010°01'78915.4
2014-Oct-08 08:16N 49°45' W 000°48'1115.8
2014-Oct-08 07:33N 49°40' W 000°33'1616.2
2014-Oct-08 06:34N 49°32' W 000°11'1212.3
2014-Oct-08 05:33N 49°28' E 000°07'2 1.5
2014-Oct-08 04:31N 49°28' E 000°09'0 0.0
2014-Oct-08 03:31N 49°28' E 000°09'0 0.0
2014-Oct-08 02:31N 49°28' E 000°09'0 0.0
2014-Oct-08 01:31N 49°28' E 000°09'0 0.0
2014-Oct-08 00:31N 49°28' E 000°09'0 0.0
2014-Oct-07 23:31N 49°28' E 000°09'0 0.0
2014-Oct-07 22:31N 49°28' E 000°09'0 0.0
2014-Oct-07 21:31N 49°28' E 000°09'0 0.0
2014-Oct-07 20:31N 49°28' E 000°09'0 0.0
2014-Oct-07 19:31N 49°28' E 000°09'0 0.0
2014-Oct-07 18:31N 49°28' E 000°09'0 0.0
2014-Oct-07 17:31N 49°28' E 000°09'0 0.0
2014-Oct-07 16:31N 49°28' E 000°09'0 0.0
2014-Oct-07 15:31N 49°28' E 000°09'0 0.0
2014-Oct-07 14:31N 49°28' E 000°09'0 0.0
2014-Oct-07 13:31N 49°28' E 000°09'0 0.0
2014-Oct-07 12:31N 49°28' E 000°09'0 0.0
2014-Oct-07 11:31N 49°28' E 000°09'0 0.0
2014-Oct-07 10:31N 49°28' E 000°09'0 0.0
2014-Oct-07 09:31N 49°28' E 000°09'0 0.0
2014-Oct-07 08:31N 49°28' E 000°09'0 0.0
2014-Oct-07 07:31N 49°28' E 000°09'0 0.0
2014-Oct-07 06:31N 49°28' E 000°09'0 0.0
2014-Oct-07 05:31N 49°28' E 000°09'0 0.0
2014-Oct-07 04:31N 49°28' E 000°09'0 0.0
2014-Oct-07 03:31N 49°28' E 000°09'0 0.0
2014-Oct-07 02:31N 49°28' E 000°09'0 0.0
2014-Oct-07 01:31N 49°28' E 000°09'0 0.0
2014-Oct-07 00:31N 49°28' E 000°09'0 0.0
2014-Oct-06 23:31N 49°28' E 000°09'0 0.0
2014-Oct-06 22:31N 49°28' E 000°09'0 0.0
2014-Oct-06 21:31N 49°28' E 000°09'0 0.0
2014-Oct-06 20:31N 49°28' E 000°09'0 0.0
2014-Oct-06 19:31N 49°28' E 000°09'0 0.0
2014-Oct-06 18:31N 49°28' E 000°09'0 0.0
2014-Oct-06 17:31N 49°28' E 000°09'0 0.0
2014-Oct-06 16:31N 49°28' E 000°09'0 0.0
2014-Oct-06 15:31N 49°28' E 000°09'0 0.0
2014-Oct-06 14:31N 49°28' E 000°09'0 0.0
2014-Oct-06 13:31N 49°28' E 000°09'0 0.0
2014-Oct-06 12:34N 49°28' E 000°09'4 3.7
2014-Oct-06 11:33N 49°29' E 000°04'9 9.1
2014-Oct-06 10:33N 49°33' W 000°09'1616.1
2014-Oct-06 09:34N 49°46' W 000°24'4320.7
2014-Oct-06 07:29N 50°25' W 000°51'1414.7
2014-Oct-06 06:33N 50°38' W 000°56'9 9.2
2014-Oct-06 05:34N 50°45' W 001°06'9 9.3
2014-Oct-06 04:33N 50°50' W 001°19'7 6.6
2014-Oct-06 03:33N 50°54' W 001°26'1 1.0
2014-Oct-06 02:31N 50°55' W 001°28'0 0.0
2014-Oct-06 01:31N 50°55' W 001°28'0 0.0
2014-Oct-06 00:31N 50°55' W 001°28'0 0.0
2014-Oct-05 23:31N 50°55' W 001°28'0 0.0
2014-Oct-05 22:31N 50°54' W 001°28'0 0.0
2014-Oct-05 21:31N 50°55' W 001°28'0 0.0
2014-Oct-05 20:31N 50°54' W 001°28'0 0.0
2014-Oct-05 19:31N 50°55' W 001°28'0 0.0
2014-Oct-05 18:31N 50°55' W 001°28'0 0.0
2014-Oct-05 17:31N 50°54' W 001°28'0 0.0
2014-Oct-05 16:31N 50°55' W 001°28'0 0.0
2014-Oct-05 15:31N 50°55' W 001°28'0 0.0
2014-Oct-05 14:31N 50°55' W 001°28'0 0.0
2014-Oct-05 13:31N 50°55' W 001°28'0 0.0
2014-Oct-05 12:31N 50°55' W 001°28'0 0.0
2014-Oct-05 11:31N 50°54' W 001°28'0 0.0
2014-Oct-05 10:31N 50°55' W 001°28'0 0.0
2014-Oct-05 09:31N 50°55' W 001°28'0 0.0
2014-Oct-05 08:31N 50°55' W 001°28'0 0.0
2014-Oct-05 07:31N 50°55' W 001°28'0 0.0
2014-Oct-05 06:31N 50°55' W 001°28'0 0.0
2014-Oct-05 05:31N 50°54' W 001°28'0 0.0
2014-Oct-05 04:31N 50°55' W 001°28'0 0.0
2014-Oct-05 03:31N 50°55' W 001°28'0 0.0
2014-Oct-05 02:31N 50°55' W 001°28'0 0.0
2014-Oct-05 01:31N 50°55' W 001°28'0 0.0
2014-Oct-05 00:31N 50°55' W 001°28'0 0.0
2014-Oct-04 23:31N 50°55' W 001°28'0 0.0
2014-Oct-04 22:31N 50°55' W 001°28'0 0.1
2014-Oct-04 21:33N 50°54' W 001°28'2 2.3
2014-Oct-04 20:34N 50°53' W 001°24'7 7.2
2014-Oct-04 19:34N 50°47' W 001°19'1413.6
2014-Oct-04 18:34N 50°43' W 000°59'8 8.2
2014-Oct-04 17:33N 50°35' W 000°56'8 7.3
2014-Oct-04 16:32N 50°31' W 000°46'1212.5
2014-Oct-04 15:33N 50°31' W 000°27'1313.1
2014-Oct-04 14:33N 50°32' W 000°06'1514.0
2014-Oct-04 13:30N 50°35' E 000°16'1314.0
2014-Oct-04 12:33N 50°39' E 000°36'1515.2
2014-Oct-04 11:34N 50°46' E 000°57'1614.6
2014-Oct-04 10:27N 50°55' E 001°19'1213.5
2014-Oct-04 09:33N 51°04' E 001°32'1313.0
2014-Oct-04 08:34N 51°13' E 001°47'1615.5
2014-Oct-04 07:33N 51°26' E 002°00'1716.9
2014-Oct-04 06:33N 51°39' E 002°17'1413.8
2014-Oct-04 05:32N 51°50' E 002°31'1414.6
2014-Oct-04 04:33N 52°01' E 002°46'1514.9
2014-Oct-04 03:33N 52°13' E 003°02'1514.7
2014-Oct-04 02:33N 52°24' E 003°17'1414.3
2014-Oct-04 01:34N 52°36' E 003°29'1413.7
2014-Oct-04 00:33N 52°47' E 003°43'1313.2
2014-Oct-03 23:33N 52°58' E 003°56'1313.1
2014-Oct-03 22:32N 53°07' E 004°13'1313.9
2014-Oct-03 21:34N 53°17' E 004°28'1818.2
2014-Oct-03 20:33N 53°30' E 004°48'1615.5
2014-Oct-03 19:33N 53°37' E 005°12'1515.3
2014-Oct-03 18:33N 53°41' E 005°36'1514.9
2014-Oct-03 17:33N 53°46' E 006°00'1414.2
2014-Oct-03 16:34N 53°50' E 006°23'1413.7
2014-Oct-03 15:32N 53°53' E 006°46'1513.5
2014-Oct-03 14:23N 53°57' E 007°12'1113.5
2014-Oct-03 13:32N 53°59' E 007°31'1313.7
2014-Oct-03 12:33N 54°02' E 007°53'1514.5
2014-Oct-03 11:34N 54°00' E 008°18'1717.2
2014-Oct-03 10:34N 53°52' E 008°44'1414.3
2014-Oct-03 09:34N 53°53' E 009°08'1212.1
2014-Oct-03 08:33N 53°45' E 009°24'1110.7
2014-Oct-03 07:34N 53°37' E 009°34'9 8.9
2014-Oct-03 06:34N 53°33' E 009°48'  
Track history (hours):
 
Tides and Currents Weather Stations Pressure Air Temp Water Temp Dewpoint Dewpoint Depression Visibility Wind Speed Wind Dir Waves Ship Positions

MOL Celebration

Last reported at 2014-Oct-13 06:07 UTC. Time now 2014-Oct-21 13:44 UTC.
Position N 36°45' E 013°16'.
Warning: this ship's position is 8 days out of date.

Length 316 m; draft 14.1 m.

Type: Ship (hazmat cat D). MMSI: 309901000.

Date/timePositionNaut miles runAvg speedWind from/ knotsBaromVisibWave heightAir tempDewpointWater temp
2014-Oct-13 06:07N 36°45' E 013°16'1017.4
2014-Oct-13 05:34N 36°49' E 013°05'1717.4
2014-Oct-13 04:34N 36°53' E 012°44'1717.4
2014-Oct-13 03:33N 36°58' E 012°23'1817.6
2014-Oct-13 02:33N 37°05' E 012°02'1917.9
2014-Oct-13 01:31N 37°11' E 011°40'1717.7
2014-Oct-13 00:34N 37°19' E 011°21'1817.5
2014-Oct-12 23:33N 37°26' E 011°01'1817.6
2014-Oct-12 22:33N 37°31' E 010°40'1818.1
2014-Oct-12 21:33N 37°35' E 010°17'1818.5
2014-Oct-12 20:33N 37°35' E 009°54'1918.8
2014-Oct-12 19:34N 37°36' E 009°31'1918.7
2014-Oct-12 18:33N 37°36' E 009°07'1818.2
2014-Oct-12 17:33N 37°35' E 008°44'1818.0
2014-Oct-12 16:34N 37°33' E 008°21'13118.0
2014-Oct-12 09:17N 37°18' E 005°37'1518.3
2014-Oct-12 08:29N 37°16' E 005°19'9618.8
2014-Oct-12 03:21N 37°03' E 003°19'2219.3
2014-Oct-12 02:12N 36°59' E 002°52'1219.1
2014-Oct-12 01:33N 36°58' E 002°37'1918.8
2014-Oct-12 00:33N 36°55' E 002°13'1818.2
2014-Oct-11 23:33N 36°52' E 001°51'2218.5
2014-Oct-11 22:23N 36°48' E 001°24'1619.1
2014-Oct-11 21:32N 36°46' E 001°04'1818.5
2014-Oct-11 20:33N 36°44' E 000°42'1817.8
2014-Oct-11 19:33N 36°41' E 000°20'1818.2
2014-Oct-11 18:33N 36°37' W 000°02'1818.0
2014-Oct-11 17:33N 36°34' W 000°24'1817.7
2014-Oct-11 16:33N 36°31' W 000°46'1817.7
2014-Oct-11 15:33N 36°28' W 001°08'1918.0
2014-Oct-11 14:31N 36°25' W 001°31'18418.5
2014-Oct-11 04:33N 35°59' W 005°17'12818.2
2014-Oct-10 21:32N 36°16' W 007°53'1818.5
2014-Oct-10 20:34N 36°22' W 008°15'1918.6
2014-Oct-10 19:34N 36°27' W 008°37'1919.1
2014-Oct-10 18:34N 36°31' W 009°00'2018.3
2014-Oct-10 17:29N 36°38' W 009°23'1718.3
2014-Oct-10 16:33N 36°52' W 009°35'1818.5
2014-Oct-10 15:33N 37°10' W 009°39'2018.6
2014-Oct-10 14:27N 37°30' W 009°45'1617.9
2014-Oct-10 13:33N 37°46' W 009°49'1918.4
2014-Oct-10 12:31N 38°04' W 009°55'1918.5
2014-Oct-10 11:28N 38°23' W 010°01'78915.4
2014-Oct-08 08:16N 49°45' W 000°48'1115.8
2014-Oct-08 07:33N 49°40' W 000°33'1616.2
2014-Oct-08 06:34N 49°32' W 000°11'1212.3
2014-Oct-08 05:33N 49°28' E 000°07'2 1.5
2014-Oct-08 04:31N 49°28' E 000°09'0 0.0
2014-Oct-08 03:31N 49°28' E 000°09'0 0.0
2014-Oct-08 02:31N 49°28' E 000°09'0 0.0
2014-Oct-08 01:31N 49°28' E 000°09'0 0.0
2014-Oct-08 00:31N 49°28' E 000°09'0 0.0
2014-Oct-07 23:31N 49°28' E 000°09'0 0.0
2014-Oct-07 22:31N 49°28' E 000°09'0 0.0
2014-Oct-07 21:31N 49°28' E 000°09'0 0.0
2014-Oct-07 20:31N 49°28' E 000°09'0 0.0
2014-Oct-07 19:31N 49°28' E 000°09'0 0.0
2014-Oct-07 18:31N 49°28' E 000°09'0 0.0
2014-Oct-07 17:31N 49°28' E 000°09'0 0.0
2014-Oct-07 16:31N 49°28' E 000°09'0 0.0
2014-Oct-07 15:31N 49°28' E 000°09'0 0.0
2014-Oct-07 14:31N 49°28' E 000°09'0 0.0
2014-Oct-07 13:31N 49°28' E 000°09'0 0.0
2014-Oct-07 12:31N 49°28' E 000°09'0 0.0
2014-Oct-07 11:31N 49°28' E 000°09'0 0.0
2014-Oct-07 10:31N 49°28' E 000°09'0 0.0
2014-Oct-07 09:31N 49°28' E 000°09'0 0.0
2014-Oct-07 08:31N 49°28' E 000°09'0 0.0
2014-Oct-07 07:31N 49°28' E 000°09'0 0.0
2014-Oct-07 06:31N 49°28' E 000°09'0 0.0
2014-Oct-07 05:31N 49°28' E 000°09'0 0.0
2014-Oct-07 04:31N 49°28' E 000°09'0 0.0
2014-Oct-07 03:31N 49°28' E 000°09'0 0.0
2014-Oct-07 02:31N 49°28' E 000°09'0 0.0
2014-Oct-07 01:31N 49°28' E 000°09'0 0.0
2014-Oct-07 00:31N 49°28' E 000°09'0 0.0
2014-Oct-06 23:31N 49°28' E 000°09'0 0.0
2014-Oct-06 22:31N 49°28' E 000°09'0 0.0
2014-Oct-06 21:31N 49°28' E 000°09'0 0.0
2014-Oct-06 20:31N 49°28' E 000°09'0 0.0
2014-Oct-06 19:31N 49°28' E 000°09'0 0.0
2014-Oct-06 18:31N 49°28' E 000°09'0 0.0
2014-Oct-06 17:31N 49°28' E 000°09'0 0.0
2014-Oct-06 16:31N 49°28' E 000°09'0 0.0
2014-Oct-06 15:31N 49°28' E 000°09'0 0.0
2014-Oct-06 14:31N 49°28' E 000°09'0 0.0
2014-Oct-06 13:31N 49°28' E 000°09'0 0.0
2014-Oct-06 12:34N 49°28' E 000°09'4 3.7
2014-Oct-06 11:33N 49°29' E 000°04'9 9.1
2014-Oct-06 10:33N 49°33' W 000°09'1616.1
2014-Oct-06 09:34N 49°46' W 000°24'4320.7
2014-Oct-06 07:29N 50°25' W 000°51'1414.7
2014-Oct-06 06:33N 50°38' W 000°56'9 9.2
2014-Oct-06 05:34N 50°45' W 001°06'9 9.3
2014-Oct-06 04:33N 50°50' W 001°19'7 6.6
2014-Oct-06 03:33N 50°54' W 001°26'1 1.0
2014-Oct-06 02:31N 50°55' W 001°28'0 0.0
2014-Oct-06 01:31N 50°55' W 001°28'0 0.0
2014-Oct-06 00:31N 50°55' W 001°28'0 0.0
2014-Oct-05 23:31N 50°55' W 001°28'0 0.0
2014-Oct-05 22:31N 50°54' W 001°28'0 0.0
2014-Oct-05 21:31N 50°55' W 001°28'0 0.0
2014-Oct-05 20:31N 50°54' W 001°28'0 0.0
2014-Oct-05 19:31N 50°55' W 001°28'0 0.0
2014-Oct-05 18:31N 50°55' W 001°28'0 0.0
2014-Oct-05 17:31N 50°54' W 001°28'0 0.0
2014-Oct-05 16:31N 50°55' W 001°28'0 0.0
2014-Oct-05 15:31N 50°55' W 001°28'0 0.0
2014-Oct-05 14:31N 50°55' W 001°28'0 0.0
2014-Oct-05 13:31N 50°55' W 001°28'0 0.0
2014-Oct-05 12:31N 50°55' W 001°28'0 0.0
2014-Oct-05 11:31N 50°54' W 001°28'0 0.0
2014-Oct-05 10:31N 50°55' W 001°28'0 0.0
2014-Oct-05 09:31N 50°55' W 001°28'0 0.0
2014-Oct-05 08:31N 50°55' W 001°28'0 0.0
2014-Oct-05 07:31N 50°55' W 001°28'0 0.0
2014-Oct-05 06:31N 50°55' W 001°28'0 0.0
2014-Oct-05 05:31N 50°54' W 001°28'0 0.0
2014-Oct-05 04:31N 50°55' W 001°28'0 0.0
2014-Oct-05 03:31N 50°55' W 001°28'0 0.0
2014-Oct-05 02:31N 50°55' W 001°28'0 0.0
2014-Oct-05 01:31N 50°55' W 001°28'0 0.0
2014-Oct-05 00:31N 50°55' W 001°28'0 0.0
2014-Oct-04 23:31N 50°55' W 001°28'0 0.0
2014-Oct-04 22:31N 50°55' W 001°28'0 0.1
2014-Oct-04 21:33N 50°54' W 001°28'2 2.3
2014-Oct-04 20:34N 50°53' W 001°24'7 7.2
2014-Oct-04 19:34N 50°47' W 001°19'1413.6
2014-Oct-04 18:34N 50°43' W 000°59'8 8.2
2014-Oct-04 17:33N 50°35' W 000°56'8 7.3
2014-Oct-04 16:32N 50°31' W 000°46'1212.5
2014-Oct-04 15:33N 50°31' W 000°27'1313.1
2014-Oct-04 14:33N 50°32' W 000°06'1514.0
2014-Oct-04 13:30N 50°35' E 000°16'1314.0
2014-Oct-04 12:33N 50°39' E 000°36'1515.2
2014-Oct-04 11:34N 50°46' E 000°57'1614.6
2014-Oct-04 10:27N 50°55' E 001°19'1213.5
2014-Oct-04 09:33N 51°04' E 001°32'1313.0
2014-Oct-04 08:34N 51°13' E 001°47'1615.5
2014-Oct-04 07:33N 51°26' E 002°00'1716.9
2014-Oct-04 06:33N 51°39' E 002°17'1413.8
2014-Oct-04 05:32N 51°50' E 002°31'1414.6
2014-Oct-04 04:33N 52°01' E 002°46'1514.9
2014-Oct-04 03:33N 52°13' E 003°02'1514.7
2014-Oct-04 02:33N 52°24' E 003°17'1414.3
2014-Oct-04 01:34N 52°36' E 003°29'1413.7
2014-Oct-04 00:33N 52°47' E 003°43'1313.2
2014-Oct-03 23:33N 52°58' E 003°56'1313.1
2014-Oct-03 22:32N 53°07' E 004°13'1313.9
2014-Oct-03 21:34N 53°17' E 004°28'1818.2
2014-Oct-03 20:33N 53°30' E 004°48'1615.5
2014-Oct-03 19:33N 53°37' E 005°12'1515.3
2014-Oct-03 18:33N 53°41' E 005°36'1514.9
2014-Oct-03 17:33N 53°46' E 006°00'1414.2
2014-Oct-03 16:34N 53°50' E 006°23'1413.7
2014-Oct-03 15:32N 53°53' E 006°46'1513.5
2014-Oct-03 14:23N 53°57' E 007°12'1113.5
2014-Oct-03 13:32N 53°59' E 007°31'1313.7
2014-Oct-03 12:33N 54°02' E 007°53'1514.5
2014-Oct-03 11:34N 54°00' E 008°18'1717.2
2014-Oct-03 10:34N 53°52' E 008°44'1414.3
2014-Oct-03 09:34N 53°53' E 009°08'1212.1
2014-Oct-03 08:33N 53°45' E 009°24'1110.7
2014-Oct-03 07:34N 53°37' E 009°34'9 8.9
2014-Oct-03 06:34N 53°33' E 009°48'  

Dump ship's entire track history